Time;durP1;ratioP1;P1;durP2;ratioP2;P2;SDS_P1;SDS_P2;PMS_P1;PMS_P2;Temp;Humidity;BMP_temperature;BMP_pressure;BME280_temperature;BME280_humidity;BME280_pressure;Samples;Min_cycle;Max_cycle;Signal;HPM_P1;HPM_P2
2021/08/23 00:00:07;;;;;;;46.00;28.58;;;15.40;99.90;;;;;;4998371;28;20125;-70
2021/08/23 00:02:35;;;;;;;50.55;28.52;;;15.40;99.90;;;;;;5015456;28;20081;-71
2021/08/23 00:05:02;;;;;;;43.25;26.00;;;15.40;99.90;;;;;;4984041;28;20491;-73
2021/08/23 00:07:29;;;;;;;49.50;29.17;;;15.40;99.90;;;;;;4985484;28;20542;-72
2021/08/23 00:09:56;;;;;;;50.08;29.13;;;15.40;99.90;;;;;;4975299;28;20050;-73
2021/08/23 00:12:24;;;;;;;54.22;31.02;;;15.40;99.90;;;;;;4983809;28;20112;-72
2021/08/23 00:14:51;;;;;;;52.65;30.17;;;15.40;99.90;;;;;;4966813;28;20046;-71
2021/08/23 00:17:18;;;;;;;48.80;28.27;;;15.50;99.90;;;;;;4998643;28;20759;-73
2021/08/23 00:19:44;;;;;;;48.35;28.00;;;15.30;99.90;;;;;;4982979;28;20084;-71
2021/08/23 00:22:20;;;;;;;56.72;29.42;;;15.20;99.90;;;;;;5014203;28;20070;-70
2021/08/23 00:24:50;;;;;;;52.78;29.67;;;15.20;99.90;;;;;;4985093;28;20112;-69
2021/08/23 00:27:18;;;;;;;53.83;29.40;;;15.30;99.90;;;;;;4983236;28;20042;-69
2021/08/23 00:29:48;;;;;;;55.65;29.00;;;15.40;99.90;;;;;;4966844;28;20070;-70
2021/08/23 00:32:16;;;;;;;57.92;29.13;;;15.40;99.90;;;;;;4984011;28;20502;-71
2021/08/23 00:34:43;;;;;;;51.40;28.98;;;15.40;99.90;;;;;;4984222;28;20525;-70
2021/08/23 00:37:10;;;;;;;58.03;30.75;;;15.50;99.90;;;;;;4985304;28;20049;-71
2021/08/23 00:39:37;;;;;;;59.30;31.48;;;15.50;99.90;;;;;;4995568;28;20084;-70
2021/08/23 00:42:05;;;;;;;58.58;30.83;;;15.50;99.90;;;;;;4988813;28;20050;-70
2021/08/23 00:44:33;;;;;;;58.20;32.10;;;15.40;99.90;;;;;;4984442;28;20170;-71
2021/08/23 00:47:00;;;;;;;64.53;33.17;;;15.50;99.90;;;;;;4984162;28;20531;-70
2021/08/23 00:49:30;;;;;;;56.97;31.30;;;15.50;99.90;;;;;;4983819;28;20450;-71
2021/08/23 00:51:58;;;;;;;55.10;29.45;;;15.60;99.90;;;;;;4949738;28;20058;-71
2021/08/23 00:54:26;;;;;;;59.25;31.63;;;15.50;99.90;;;;;;4963361;28;20038;-72
2021/08/23 00:56:53;;;;;;;56.38;31.63;;;15.50;99.90;;;;;;4962732;28;20154;-72
2021/08/23 00:59:23;;;;;;;54.60;29.80;;;15.60;99.90;;;;;;4963678;28;20089;-71
2021/08/23 01:01:59;;;;;;;55.67;31.35;;;15.60;99.90;;;;;;4964323;28;20134;-70
2021/08/23 01:04:31;;;;;;;62.53;32.25;;;15.60;99.90;;;;;;5011870;28;20138;-71
2021/08/23 01:07:01;;;;;;;54.25;28.55;;;15.60;99.90;;;;;;4984347;28;20329;-71
2021/08/23 01:09:32;;;;;;;53.55;30.15;;;15.70;99.90;;;;;;4974315;28;20112;-71
2021/08/23 01:12:03;;;;;;;57.22;30.08;;;15.70;99.90;;;;;;4989349;28;20054;-71
2021/08/23 01:14:30;;;;;;;61.08;32.45;;;15.60;99.90;;;;;;4997616;28;20497;-72
2021/08/23 01:16:57;;;;;;;68.97;33.05;;;15.60;99.90;;;;;;4981685;28;20525;-71
2021/08/23 01:19:24;;;;;;;67.55;31.48;;;15.60;99.90;;;;;;4983271;28;20125;-70
2021/08/23 01:21:54;;;;;;;58.05;31.60;;;15.60;99.90;;;;;;4982624;28;20050;-70
2021/08/23 01:24:22;;;;;;;58.92;31.08;;;15.70;99.90;;;;;;4983037;28;20058;-71
2021/08/23 01:26:52;;;;;;;60.42;30.15;;;15.70;99.90;;;;;;5014474;28;20133;-69
2021/08/23 01:29:35;;;;;;;53.78;29.23;;;15.70;99.90;;;;;;5015168;28;20542;-69
2021/08/23 01:32:18;;;;;;;65.40;31.27;;;15.60;99.90;;;;;;4982936;28;20050;-71
2021/08/23 01:34:45;;;;;;;58.00;29.38;;;15.70;99.90;;;;;;4982346;28;20050;-70
2021/08/23 01:37:13;;;;;;;55.78;29.65;;;15.70;99.90;;;;;;4968912;28;20056;-72
2021/08/23 01:39:41;;;;;;;58.30;30.30;;;15.60;99.90;;;;;;4994174;28;20073;-71
2021/08/23 01:42:08;;;;;;;57.70;31.10;;;15.60;99.90;;;;;;4986421;28;20529;-70
2021/08/23 01:44:35;;;;;;;67.53;32.28;;;15.60;99.90;;;;;;4982548;28;20070;-72
2021/08/23 01:47:02;;;;;;;56.00;30.00;;;15.60;99.90;;;;;;4981780;28;20050;-71
2021/08/23 01:49:29;;;;;;;52.83;28.63;;;15.50;99.90;;;;;;4982183;28;20117;-72
2021/08/23 01:51:56;;;;;;;62.70;30.02;;;15.50;99.90;;;;;;4981682;28;20249;-70
2021/08/23 01:54:23;;;;;;;56.25;27.15;;;15.50;99.90;;;;;;4985560;28;20073;-72
2021/08/23 01:56:49;;;;;;;52.10;27.20;;;15.50;99.90;;;;;;4969613;28;20058;-72
2021/08/23 01:59:16;;;;;;;60.97;29.33;;;15.50;99.90;;;;;;4986829;28;20109;-71
2021/08/23 02:01:43;;;;;;;58.00;30.20;;;15.50;99.90;;;;;;4985138;28;20050;-72
2021/08/23 02:04:10;;;;;;;46.67;23.73;;;15.50;99.90;;;;;;5017561;28;20342;-72
2021/08/23 02:06:37;;;;;;;45.08;24.17;;;15.50;99.90;;;;;;4985157;28;20395;-71
2021/08/23 02:09:04;;;;;;;46.38;24.25;;;15.50;99.90;;;;;;5009790;28;20687;-71
2021/08/23 02:11:31;;;;;;;45.28;25.00;;;15.50;99.90;;;;;;4984710;28;20046;-71
2021/08/23 02:13:58;;;;;;;57.67;27.27;;;15.50;99.90;;;;;;4986259;28;20050;-72
2021/08/23 02:16:25;;;;;;;54.30;26.00;;;15.50;99.90;;;;;;4985908;28;20118;-70
2021/08/23 02:18:52;;;;;;;57.25;26.67;;;15.50;99.90;;;;;;4968797;28;20050;-72
2021/08/23 02:21:20;;;;;;;52.25;27.35;;;15.60;99.90;;;;;;4970519;28;20105;-71
2021/08/23 02:23:49;;;;;;;59.35;28.10;;;15.60;99.90;;;;;;4969644;28;20073;-72
2021/08/23 02:26:15;;;;;;;56.08;27.38;;;15.60;99.90;;;;;;4985917;28;20105;-72
2021/08/23 02:28:42;;;;;;;53.38;26.88;;;15.60;99.90;;;;;;4969073;28;20050;-71
2021/08/23 02:31:09;;;;;;;53.03;27.48;;;15.60;99.90;;;;;;5017671;28;20061;-70
2021/08/23 02:33:36;;;;;;;54.03;27.67;;;15.50;99.90;;;;;;4986773;28;20439;-71
2021/08/23 02:36:03;;;;;;;48.95;25.92;;;15.40;99.90;;;;;;4984347;28;20195;-71
2021/08/23 02:38:30;;;;;;;57.03;27.80;;;15.50;99.90;;;;;;4982151;28;20116;-72
2021/08/23 02:40:57;;;;;;;47.70;27.17;;;15.60;99.90;;;;;;5002382;28;20277;-72
2021/08/23 02:43:23;;;;;;;56.70;27.02;;;15.60;99.90;;;;;;4998526;28;20399;-70
2021/08/23 02:45:50;;;;;;;56.13;26.38;;;15.60;99.90;;;;;;5003012;28;20092;-72
2021/08/23 02:48:17;;;;;;;50.72;24.50;;;15.60;99.90;;;;;;4985997;28;20141;-72
2021/08/23 02:50:44;;;;;;;45.47;23.67;;;15.50;99.90;;;;;;4966654;28;20059;-70
2021/08/23 02:53:10;;;;;;;50.08;24.50;;;15.50;99.90;;;;;;4965277;28;20455;-73
2021/08/23 02:55:37;;;;;;;45.08;23.73;;;15.50;99.90;;;;;;4981227;28;20054;-72
2021/08/23 02:58:04;;;;;;;38.90;21.55;;;15.50;99.90;;;;;;4983382;28;20053;-70
2021/08/23 03:00:31;;;;;;;41.90;21.40;;;15.50;99.90;;;;;;4983513;28;20061;-72
2021/08/23 03:02:58;;;;;;;34.15;19.70;;;15.60;99.90;;;;;;4984601;28;20074;-70
2021/08/23 03:05:24;;;;;;;41.53;22.23;;;15.50;99.90;;;;;;4984893;28;20054;-71
2021/08/23 03:07:51;;;;;;;37.97;21.13;;;15.50;99.90;;;;;;4973097;28;20050;-72
2021/08/23 03:10:18;;;;;;;40.10;20.75;;;15.60;99.90;;;;;;4990787;28;20502;-71
2021/08/23 03:12:45;;;;;;;42.72;21.80;;;15.60;99.90;;;;;;4981795;28;20525;-73
2021/08/23 03:15:12;;;;;;;45.90;22.95;;;15.70;99.90;;;;;;4999563;28;20491;-71
2021/08/23 03:17:39;;;;;;;50.58;23.70;;;15.80;99.90;;;;;;4985157;28;20116;-70
2021/08/23 03:20:06;;;;;;;56.90;25.30;;;15.80;99.90;;;;;;4983632;28;20046;-72
2021/08/23 03:22:33;;;;;;;52.92;26.05;;;15.80;99.90;;;;;;4985578;28;20061;-72
2021/08/23 03:25:00;;;;;;;56.17;24.80;;;15.70;99.90;;;;;;5017106;28;20410;-72
2021/08/23 03:27:26;;;;;;;58.00;25.42;;;15.70;99.90;;;;;;4983275;28;20050;-71
2021/08/23 03:29:53;;;;;;;54.58;25.60;;;15.70;99.90;;;;;;4967805;28;20506;-71
2021/08/23 03:32:20;;;;;;;48.63;23.63;;;15.70;99.90;;;;;;4984762;28;20065;-72
2021/08/23 03:34:47;;;;;;;53.63;23.88;;;15.60;99.90;;;;;;4984106;28;20066;-71
2021/08/23 03:37:15;;;;;;;46.33;22.10;;;15.50;99.90;;;;;;4987185;28;20076;-72
2021/08/23 03:39:42;;;;;;;44.83;22.40;;;15.40;99.90;;;;;;4991109;28;20042;-73
2021/08/23 03:42:09;;;;;;;43.58;21.92;;;15.40;99.90;;;;;;4971805;28;20046;-72
2021/08/23 03:44:36;;;;;;;46.00;23.20;;;15.40;99.90;;;;;;4983188;28;20061;-71
2021/08/23 03:47:03;;;;;;;43.55;21.95;;;15.50;99.90;;;;;;4983071;28;20124;-73
2021/08/23 03:49:29;;;;;;;41.00;21.85;;;15.40;99.90;;;;;;4984310;28;20113;-71
2021/08/23 03:51:56;;;;;;;45.17;23.73;;;15.50;99.90;;;;;;4983145;28;20058;-72
2021/08/23 03:54:23;;;;;;;42.63;21.45;;;15.50;99.90;;;;;;4967510;28;20605;-73
2021/08/23 03:56:50;;;;;;;41.35;20.88;;;15.60;99.90;;;;;;4983363;28;20150;-72
2021/08/23 03:59:16;;;;;;;41.05;20.60;;;15.60;99.90;;;;;;4983095;28;20062;-73
2021/08/23 04:01:43;;;;;;;31.38;19.17;;;15.50;99.90;;;;;;4999242;28;20038;-73
2021/08/23 04:04:10;;;;;;;37.63;20.80;;;15.50;99.90;;;;;;4966295;28;20054;-72
2021/08/23 04:06:44;;;;;;;39.08;20.63;;;15.50;99.90;;;;;;4982827;28;20434;-73
2021/08/23 04:09:14;;;;;;;40.28;20.13;;;15.50;99.90;;;;;;5005649;28;20070;-72
2021/08/23 04:11:41;;;;;;;32.50;18.30;;;15.50;99.90;;;;;;4966510;28;20081;-73
2021/08/23 04:14:08;;;;;;;39.20;19.70;;;15.50;99.90;;;;;;4982907;28;20042;-71
2021/08/23 04:16:34;;;;;;;37.63;20.15;;;15.40;99.90;;;;;;4981340;28;20061;-71
2021/08/23 04:19:01;;;;;;;37.90;19.90;;;15.50;99.90;;;;;;4983029;28;20273;-73
2021/08/23 04:21:28;;;;;;;40.80;20.75;;;15.60;99.90;;;;;;4966358;28;20051;-72
2021/08/23 04:23:55;;;;;;;40.03;21.25;;;15.60;99.90;;;;;;4966754;28;20368;-72
2021/08/23 04:26:22;;;;;;;40.78;20.85;;;15.60;99.90;;;;;;4984043;28;20061;-74
2021/08/23 04:28:48;;;;;;;42.55;20.85;;;15.70;99.90;;;;;;4966737;28;20069;-72
2021/08/23 04:31:15;;;;;;;40.00;21.58;;;15.60;99.90;;;;;;4965982;28;20054;-72
2021/08/23 04:33:45;;;;;;;49.03;23.70;;;15.60;99.90;;;;;;4967163;28;20317;-73
2021/08/23 04:36:12;;;;;;;42.28;23.38;;;15.50;99.90;;;;;;4982785;28;20502;-73
2021/08/23 04:38:39;;;;;;;51.42;24.52;;;15.50;99.90;;;;;;4990462;28;20069;-72
2021/08/23 04:41:09;;;;;;;52.45;25.27;;;15.50;99.90;;;;;;4986562;28;20051;-72
2021/08/23 04:43:36;;;;;;;50.35;25.48;;;15.60;99.90;;;;;;4979980;28;20591;-72
2021/08/23 04:46:03;;;;;;;47.15;23.92;;;15.60;99.90;;;;;;4983239;28;20104;-71
2021/08/23 04:48:32;;;;;;;51.78;23.02;;;15.60;99.90;;;;;;5004238;28;20522;-71
2021/08/23 04:50:58;;;;;;;52.45;24.52;;;15.50;99.90;;;;;;4990750;28;20117;-74
2021/08/23 04:53:25;;;;;;;50.95;24.92;;;15.50;99.90;;;;;;4950724;28;20112;-72
2021/08/23 04:55:52;;;;;;;61.88;26.80;;;15.50;99.90;;;;;;4966891;28;20439;-72
2021/08/23 04:58:19;;;;;;;61.15;25.88;;;15.50;99.90;;;;;;4965756;28;20120;-72
2021/08/23 05:00:45;;;;;;;67.40;27.60;;;15.60;99.90;;;;;;4983436;28;20034;-72
2021/08/23 05:03:12;;;;;;;57.97;26.50;;;15.60;99.90;;;;;;4999414;28;20129;-72
2021/08/23 05:05:41;;;;;;;54.13;25.13;;;15.50;99.90;;;;;;4988811;28;20398;-72
2021/08/23 05:08:08;;;;;;;49.25;24.13;;;15.60;99.90;;;;;;4989748;28;20041;-72
2021/08/23 05:10:35;;;;;;;49.08;23.27;;;15.60;99.90;;;;;;4989391;28;20054;-72
2021/08/23 05:13:01;;;;;;;49.35;23.50;;;15.50;99.90;;;;;;4965144;28;20042;-72
2021/08/23 05:15:28;;;;;;;51.42;24.17;;;15.60;99.90;;;;;;4981268;28;20050;-72
2021/08/23 05:17:55;;;;;;;52.45;24.73;;;15.60;99.90;;;;;;4965802;28;20073;-73
2021/08/23 05:20:22;;;;;;;49.97;24.15;;;15.50;99.90;;;;;;4997369;28;20546;-73
2021/08/23 05:22:49;;;;;;;58.88;25.35;;;15.50;99.90;;;;;;4983390;28;20055;-71
2021/08/23 05:25:16;;;;;;;53.95;24.45;;;15.50;99.90;;;;;;4981586;28;20105;-72
2021/08/23 05:27:43;;;;;;;61.42;24.88;;;15.50;99.90;;;;;;4969251;28;20046;-71
2021/08/23 05:30:11;;;;;;;48.95;22.33;;;15.40;99.90;;;;;;5001262;28;20054;-72
2021/08/23 05:32:38;;;;;;;48.35;21.48;;;15.50;99.90;;;;;;5001532;28;20168;-73
2021/08/23 05:35:06;;;;;;;53.03;23.27;;;15.40;99.90;;;;;;5018300;28;20114;-73
2021/08/23 05:37:33;;;;;;;44.17;20.70;;;15.40;99.90;;;;;;4991241;28;20062;-72
2021/08/23 05:40:00;;;;;;;47.95;21.90;;;15.50;99.90;;;;;;4997614;28;20045;-74
2021/08/23 05:42:27;;;;;;;39.38;21.60;;;15.50;99.90;;;;;;4986291;28;20054;-72
2021/08/23 05:44:54;;;;;;;44.92;23.27;;;15.50;99.90;;;;;;4985520;28;20061;-73
2021/08/23 05:47:22;;;;;;;43.88;24.98;;;15.50;99.90;;;;;;4968309;28;20505;-73
2021/08/23 05:49:49;;;;;;;46.33;25.27;;;15.50;99.90;;;;;;4985560;28;20070;-72
2021/08/23 05:52:16;;;;;;;42.63;25.15;;;15.50;99.90;;;;;;4942833;28;20479;-72
2021/08/23 05:54:44;;;;;;;38.53;24.95;;;15.60;99.90;;;;;;4984202;28;20189;-73
2021/08/23 05:57:10;;;;;;;45.70;26.85;;;15.50;99.90;;;;;;4985214;28;20109;-73
2021/08/23 05:59:37;;;;;;;47.67;25.83;;;15.50;99.90;;;;;;4965736;28;20078;-71
2021/08/23 06:02:04;;;;;;;43.72;25.77;;;15.50;99.90;;;;;;4965500;28;20043;-72
2021/08/23 06:04:31;;;;;;;50.80;28.00;;;15.50;99.90;;;;;;4988367;28;20070;-73
2021/08/23 06:07:00;;;;;;;47.03;26.20;;;15.50;99.90;;;;;;5002872;28;20038;-72
2021/08/23 06:09:26;;;;;;;48.60;28.85;;;15.50;99.90;;;;;;4995660;28;20047;-73
2021/08/23 06:11:53;;;;;;;49.97;28.35;;;15.50;99.90;;;;;;4991304;28;20051;-72
2021/08/23 06:14:20;;;;;;;50.60;27.17;;;15.50;99.90;;;;;;4994282;28;20058;-72
2021/08/23 06:16:47;;;;;;;49.45;27.92;;;15.60;99.90;;;;;;4982762;28;20377;-71
2021/08/23 06:19:13;;;;;;;42.63;24.35;;;15.50;99.90;;;;;;4984431;28;20042;-71
2021/08/23 06:21:40;;;;;;;42.17;23.98;;;15.50;99.90;;;;;;5001524;28;20050;-72
2021/08/23 06:24:07;;;;;;;44.45;26.08;;;15.50;99.90;;;;;;5008996;28;20057;-72
2021/08/23 06:26:34;;;;;;;42.33;23.35;;;15.40;99.90;;;;;;4998423;28;20324;-71
2021/08/23 06:29:01;;;;;;;47.05;24.85;;;15.30;99.90;;;;;;4999189;28;20117;-70
2021/08/23 06:31:28;;;;;;;45.67;26.17;;;15.30;99.90;;;;;;4967582;28;20077;-71
2021/08/23 06:33:55;;;;;;;43.80;26.83;;;15.20;99.90;;;;;;4983829;28;20096;-72
2021/08/23 06:36:21;;;;;;;45.75;26.95;;;15.20;99.90;;;;;;4983093;28;20086;-71
2021/08/23 06:38:48;;;;;;;55.70;30.23;;;15.10;99.90;;;;;;5007822;28;20058;-72
2021/08/23 06:41:19;;;;;;;53.47;30.20;;;15.10;99.90;;;;;;4991206;28;20215;-71
2021/08/23 06:43:47;;;;;;;52.03;29.65;;;15.10;99.90;;;;;;4985978;28;20042;-72
2021/08/23 06:46:15;;;;;;;55.10;30.48;;;15.00;99.90;;;;;;4968378;28;20117;-71
2021/08/23 06:48:43;;;;;;;56.80;30.33;;;15.10;99.90;;;;;;4968390;28;20059;-71
2021/08/23 06:51:10;;;;;;;62.15;34.10;;;15.10;99.90;;;;;;4984428;28;20050;-71
2021/08/23 06:53:37;;;;;;;63.97;34.47;;;15.10;99.90;;;;;;4986972;28;20054;-72
2021/08/23 06:56:04;;;;;;;63.55;33.65;;;15.20;99.90;;;;;;4984230;28;20414;-70
2021/08/23 06:58:32;;;;;;;63.10;33.45;;;15.20;99.90;;;;;;4984424;28;20053;-71
2021/08/23 07:00:59;;;;;;;54.15;30.98;;;15.20;99.90;;;;;;4984176;28;20046;-70
2021/08/23 07:03:26;;;;;;;51.88;31.83;;;15.30;99.90;;;;;;5000690;28;20153;-71
2021/08/23 07:05:52;;;;;;;54.97;31.30;;;15.30;99.90;;;;;;4986213;28;20050;-70
2021/08/23 07:08:39;;;;;;;54.40;31.60;;;15.30;99.90;;;;;;4994603;28;20581;-70
2021/08/23 07:11:06;;;;;;;54.67;31.65;;;15.30;99.90;;;;;;4985069;28;20074;-70
2021/08/23 07:13:33;;;;;;;52.92;31.05;;;15.30;99.90;;;;;;4976076;28;20112;-70
2021/08/23 07:16:01;;;;;;;56.33;31.83;;;15.20;99.90;;;;;;4985457;28;20057;-72
2021/08/23 07:18:30;;;;;;;60.63;32.38;;;15.30;99.90;;;;;;4984751;28;20086;-70
2021/08/23 07:20:56;;;;;;;59.15;33.13;;;15.20;99.90;;;;;;5016220;28;20228;-70
2021/08/23 07:23:23;;;;;;;53.72;31.90;;;15.20;99.90;;;;;;5000514;28;20050;-71
2021/08/23 07:25:50;;;;;;;55.60;32.47;;;15.20;99.90;;;;;;4983385;28;20049;-70
2021/08/23 07:28:17;;;;;;;63.95;34.45;;;15.20;99.90;;;;;;4983643;28;20082;-70
2021/08/23 07:30:45;;;;;;;53.03;31.80;;;15.30;99.90;;;;;;4983708;28;20120;-72
2021/08/23 07:33:12;;;;;;;64.40;35.03;;;15.40;99.90;;;;;;4984859;28;20062;-71
2021/08/23 07:35:40;;;;;;;55.22;31.65;;;15.50;99.90;;;;;;4985162;28;20058;-71
2021/08/23 07:38:07;;;;;;;54.17;32.17;;;15.40;99.90;;;;;;4986148;28;21293;-70
2021/08/23 07:40:35;;;;;;;55.35;34.70;;;15.50;99.90;;;;;;4986325;28;20065;-71
2021/08/23 07:43:02;;;;;;;57.47;37.25;;;15.50;99.90;;;;;;4995065;28;20050;-71
2021/08/23 07:45:29;;;;;;;51.10;34.55;;;15.60;99.90;;;;;;4982248;28;20057;-71
2021/08/23 07:47:56;;;;;;;46.22;33.38;;;15.60;99.90;;;;;;4982934;28;20042;-70
2021/08/23 07:50:24;;;;;;;48.47;31.52;;;15.60;99.90;;;;;;4949393;28;20050;-72
2021/08/23 07:52:51;;;;;;;44.58;30.02;;;15.70;99.90;;;;;;4980585;28;20042;-72
2021/08/23 07:55:18;;;;;;;38.85;27.48;;;15.70;99.90;;;;;;4963918;28;20395;-70
2021/08/23 07:57:47;;;;;;;42.92;29.63;;;15.60;99.90;;;;;;4983714;28;20046;-72
2021/08/23 08:00:16;;;;;;;39.10;27.88;;;15.50;99.90;;;;;;4982326;28;20405;-71
2021/08/23 08:02:43;;;;;;;35.58;27.00;;;15.50;99.90;;;;;;4984961;28;20189;-73
2021/08/23 08:05:10;;;;;;;39.00;27.10;;;15.50;99.90;;;;;;4997715;28;20700;-73
2021/08/23 08:07:37;;;;;;;34.80;26.33;;;15.50;99.90;;;;;;5001860;28;20046;-73
2021/08/23 08:10:06;;;;;;;37.90;26.10;;;15.60;99.90;;;;;;4986923;28;20499;-73
2021/08/23 08:12:33;;;;;;;38.75;28.05;;;15.70;99.90;;;;;;4968319;28;20054;-73
2021/08/23 08:15:01;;;;;;;34.33;23.95;;;15.60;99.90;;;;;;5003002;28;20132;-73
2021/08/23 08:17:27;;;;;;;35.33;25.83;;;15.60;99.90;;;;;;5002167;28;20057;-74
2021/08/23 08:19:54;;;;;;;39.60;27.70;;;15.50;99.90;;;;;;5002444;28;20045;-73
2021/08/23 08:22:21;;;;;;;42.78;28.05;;;15.60;99.90;;;;;;4967558;28;20039;-73
2021/08/23 08:24:48;;;;;;;34.22;26.13;;;15.60;99.90;;;;;;4966689;28;20042;-73
2021/08/23 08:27:15;;;;;;;35.00;25.33;;;15.80;99.90;;;;;;4980529;28;20057;-74
2021/08/23 08:29:42;;;;;;;34.33;23.92;;;15.80;99.90;;;;;;4965254;28;20541;-72
2021/08/23 08:32:09;;;;;;;32.22;25.00;;;15.70;99.90;;;;;;4966059;28;20054;-73
2021/08/23 08:34:36;;;;;;;36.13;25.70;;;15.60;99.90;;;;;;4984623;28;20054;-74
2021/08/23 08:37:03;;;;;;;36.88;27.27;;;15.50;99.90;;;;;;4985124;28;20046;-75
2021/08/23 08:39:30;;;;;;;34.60;24.27;;;15.50;99.90;;;;;;4993559;28;20054;-74
2021/08/23 08:41:57;;;;;;;33.85;25.52;;;15.50;99.90;;;;;;4995253;28;20049;-74
2021/08/23 08:44:24;;;;;;;30.70;22.75;;;15.50;99.90;;;;;;4981833;28;20318;-74
2021/08/23 08:46:53;;;;;;;33.78;25.02;;;15.60;99.90;;;;;;4982596;28;20057;-74
2021/08/23 08:49:20;;;;;;;36.60;27.27;;;15.70;99.90;;;;;;4984665;28;20046;-74
2021/08/23 08:51:47;;;;;;;36.83;25.67;;;15.80;99.90;;;;;;4982153;28;20065;-75
2021/08/23 08:54:14;;;;;;;40.40;29.52;;;15.90;99.90;;;;;;4982061;28;20503;-75
2021/08/23 08:56:41;;;;;;;40.08;26.85;;;16.00;99.90;;;;;;4982514;28;20046;-74
2021/08/23 08:59:08;;;;;;;41.10;30.80;;;15.80;99.90;;;;;;4983165;28;20050;-73
2021/08/23 09:01:35;;;;;;;34.50;26.52;;;15.70;99.90;;;;;;4983799;28;20050;-74
2021/08/23 09:04:04;;;;;;;38.08;29.85;;;15.70;99.90;;;;;;4969030;28;20084;-73
2021/08/23 09:06:39;;;;;;;40.60;29.67;;;15.60;99.90;;;;;;4966023;28;20412;-74
2021/08/23 09:09:11;;;;;;;47.45;33.80;;;15.60;99.90;;;;;;4990675;28;20046;-75
2021/08/23 09:11:40;;;;;;;43.08;31.70;;;15.70;99.90;;;;;;4956929;28;20057;-74
2021/08/23 09:14:09;;;;;;;50.78;34.03;;;15.70;99.90;;;;;;4979796;28;20521;-74
2021/08/23 09:16:39;;;;;;;43.17;31.73;;;15.70;99.90;;;;;;4983036;28;20089;-74
2021/08/23 09:19:07;;;;;;;47.25;31.83;;;15.70;99.90;;;;;;4966226;28;20054;-73
2021/08/23 09:21:40;;;;;;;46.50;33.33;;;15.90;99.90;;;;;;4998483;28;20460;-74
2021/08/23 09:24:20;;;;;;;40.55;29.70;;;15.90;99.90;;;;;;4982389;28;20112;-73
2021/08/23 09:26:47;;;;;;;46.85;30.92;;;15.90;99.90;;;;;;4982397;28;20458;-74
2021/08/23 09:29:15;;;;;;;45.00;32.08;;;15.80;99.90;;;;;;4980782;28;20062;-74
2021/08/23 09:31:42;;;;;;;42.42;30.48;;;15.90;99.90;;;;;;4982393;28;20050;-73
2021/08/23 09:34:14;;;;;;;38.88;30.25;;;16.00;99.90;;;;;;4983288;28;20265;-73
2021/08/23 09:36:40;;;;;;;41.08;30.67;;;16.20;99.90;;;;;;4961547;28;20133;-74
2021/08/23 09:39:15;;;;;;;36.42;29.00;;;16.20;99.90;;;;;;4992908;28;20127;-74
2021/08/23 09:41:42;;;;;;;37.53;26.95;;;16.30;99.90;;;;;;4989621;28;20057;-75
2021/08/23 09:44:11;;;;;;;35.33;28.15;;;16.40;99.90;;;;;;4983180;28;20058;-73
2021/08/23 09:46:39;;;;;;;35.58;28.10;;;16.40;99.90;;;;;;4981348;28;20129;-74
2021/08/23 09:49:09;;;;;;;35.92;26.67;;;16.50;99.90;;;;;;4982076;28;20077;-74
2021/08/23 09:51:41;;;;;;;32.85;27.02;;;16.60;99.90;;;;;;4983715;28;20054;-73
2021/08/23 09:54:19;;;;;;;40.15;31.15;;;16.50;99.90;;;;;;4964742;28;20046;-74
2021/08/23 09:56:55;;;;;;;38.33;29.67;;;16.40;99.90;;;;;;4981867;28;20149;-75
2021/08/23 09:59:27;;;;;;;40.55;29.45;;;16.40;99.90;;;;;;4965910;28;20424;-72
2021/08/23 10:02:01;;;;;;;38.53;29.23;;;16.50;99.90;;;;;;4965083;28;20661;-72
2021/08/23 10:04:29;;;;;;;36.80;29.23;;;16.50;99.90;;;;;;4981111;28;20522;-73
2021/08/23 10:06:57;;;;;;;33.13;27.58;;;16.40;99.90;;;;;;4979057;28;20061;-73
2021/08/23 10:09:26;;;;;;;35.20;27.95;;;16.40;99.90;;;;;;4986388;28;20400;-73
2021/08/23 10:11:58;;;;;;;33.25;27.02;;;16.40;99.90;;;;;;4985869;28;20037;-73
2021/08/23 10:14:26;;;;;;;37.90;29.45;;;16.20;99.90;;;;;;5000713;28;20253;-73
2021/08/23 10:16:53;;;;;;;32.30;27.20;;;16.20;99.90;;;;;;4982921;28;20068;-72
2021/08/23 10:19:21;;;;;;;32.97;26.38;;;16.30;99.90;;;;;;4985448;28;20112;-73
2021/08/23 10:21:50;;;;;;;32.13;25.20;;;16.40;99.90;;;;;;4985033;28;20054;-72
2021/08/23 10:24:23;;;;;;;29.45;25.98;;;16.40;99.90;;;;;;4968168;28;20062;-73
2021/08/23 10:26:51;;;;;;;32.83;26.40;;;16.40;99.90;;;;;;4984938;28;20062;-72
2021/08/23 10:29:17;;;;;;;27.85;23.65;;;16.40;99.90;;;;;;4968382;28;20459;-72
2021/08/23 10:31:45;;;;;;;32.17;25.95;;;16.40;99.90;;;;;;4984741;28;20058;-73
2021/08/23 10:34:13;;;;;;;30.80;25.58;;;16.30;99.90;;;;;;4986868;28;20077;-73
2021/08/23 10:36:40;;;;;;;29.50;24.73;;;16.30;99.90;;;;;;4969376;28;20050;-73
2021/08/23 10:39:08;;;;;;;28.88;23.42;;;16.40;99.90;;;;;;4998402;28;20104;-72
2021/08/23 10:41:35;;;;;;;26.92;22.95;;;16.40;99.90;;;;;;4973241;28;20046;-72
2021/08/23 10:44:04;;;;;;;26.48;21.02;;;16.20;99.90;;;;;;4983342;28;20065;-72
2021/08/23 10:46:40;;;;;;;27.55;23.70;;;16.30;99.90;;;;;;5000069;28;20054;-72
2021/08/23 10:49:13;;;;;;;25.90;20.02;;;16.40;99.90;;;;;;4968636;28;20556;-73
2021/08/23 10:51:42;;;;;;;27.50;20.92;;;16.50;99.90;;;;;;5000767;28;20481;-73
2021/08/23 10:54:39;;;;;;;23.00;19.45;;;16.60;99.90;;;;;;4983090;28;20359;-72
2021/08/23 10:57:08;;;;;;;24.13;19.13;;;16.70;99.90;;;;;;5001612;28;20045;-73
2021/08/23 10:59:48;;;;;;;24.88;17.92;;;16.70;99.90;;;;;;5000950;28;20473;-73
2021/08/23 11:02:36;;;;;;;24.38;18.08;;;16.90;99.90;;;;;;5004626;28;20048;-72
2021/08/23 11:05:11;;;;;;;21.02;18.13;;;16.90;99.90;;;;;;4973022;28;20050;-73
2021/08/23 11:07:40;;;;;;;20.67;17.63;;;17.00;99.90;;;;;;4988277;28;20042;-72
2021/08/23 11:10:39;;;;;;;17.27;13.93;;;17.10;99.90;;;;;;5011887;28;20108;-72
2021/08/23 11:13:17;;;;;;;16.45;12.73;;;17.10;99.90;;;;;;4981339;28;20081;-73
2021/08/23 11:15:45;;;;;;;19.35;13.75;;;16.90;99.90;;;;;;4980322;28;20418;-72
2021/08/23 11:18:16;;;;;;;17.25;13.95;;;16.80;99.90;;;;;;4982472;28;20403;-73
2021/08/23 11:20:52;;;;;;;15.75;13.60;;;16.70;99.90;;;;;;4983825;28;20046;-72
2021/08/23 11:23:26;;;;;;;15.00;11.50;;;16.60;99.90;;;;;;4983992;28;20061;-73
2021/08/23 11:25:57;;;;;;;13.48;11.63;;;16.70;99.90;;;;;;4984791;28;20050;-73
2021/08/23 11:28:27;;;;;;;15.95;13.48;;;16.70;99.90;;;;;;4967532;28;20276;-73
2021/08/23 11:30:57;;;;;;;14.45;12.60;;;16.80;99.90;;;;;;4999445;28;20053;-73
2021/08/23 11:33:29;;;;;;;16.17;11.60;;;16.90;99.90;;;;;;4983707;28;20062;-72
2021/08/23 11:35:56;;;;;;;16.80;13.18;;;16.90;99.90;;;;;;4999536;28;20054;-73
2021/08/23 11:38:28;;;;;;;18.90;12.52;;;16.80;99.90;;;;;;4990697;28;20419;-72
2021/08/23 11:40:55;;;;;;;16.70;13.10;;;16.70;99.90;;;;;;4979489;28;20050;-72
2021/08/23 11:43:26;;;;;;;18.67;13.48;;;16.60;99.90;;;;;;4999681;28;20087;-72
2021/08/23 11:45:54;;;;;;;17.77;12.88;;;16.60;99.90;;;;;;4982163;28;20065;-73
2021/08/23 11:48:21;;;;;;;16.17;11.52;;;16.90;99.90;;;;;;4966585;28;20340;-71
2021/08/23 11:50:48;;;;;;;14.60;11.55;;;17.20;99.90;;;;;;4984552;28;20081;-71
2021/08/23 11:53:16;;;;;;;14.52;10.80;;;17.50;99.90;;;;;;4982711;28;20053;-73
2021/08/23 11:55:45;;;;;;;11.82;10.07;;;17.90;99.90;;;;;;4967003;28;20130;-73
2021/08/23 11:58:21;;;;;;;10.95;9.85;;;18.30;99.90;;;;;;4966611;28;20058;-72
2021/08/23 12:01:05;;;;;;;11.40;10.20;;;18.50;99.90;;;;;;4983620;28;20507;-73
2021/08/23 12:03:32;;;;;;;13.23;9.20;;;18.60;99.90;;;;;;4967486;28;20046;-72
2021/08/23 12:06:11;;;;;;;12.02;10.35;;;18.50;99.90;;;;;;4984614;28;20047;-72
2021/08/23 12:08:40;;;;;;;12.80;9.88;;;18.20;99.90;;;;;;4993205;28;20057;-72
2021/08/23 12:11:19;;;;;;;10.63;8.77;;;17.90;99.90;;;;;;4982045;28;20046;-73
2021/08/23 12:13:48;;;;;;;12.60;9.80;;;17.70;99.90;;;;;;4980468;28;20319;-72
2021/08/23 12:16:17;;;;;;;9.13;7.35;;;18.10;99.90;;;;;;4982120;28;20129;-72
2021/08/23 12:18:49;;;;;;;12.23;8.80;;;18.60;99.90;;;;;;4982954;28;20058;-72
2021/08/23 12:21:29;;;;;;;11.98;7.88;;;18.60;99.90;;;;;;4981820;28;20058;-72
2021/08/23 12:24:15;;;;;;;10.82;8.18;;;19.00;99.90;;;;;;4966759;28;20073;-72
2021/08/23 12:27:00;;;;;;;11.70;9.07;;;19.30;99.90;;;;;;4982694;28;20073;-73
2021/08/23 12:29:36;;;;;;;10.20;9.20;;;19.70;99.90;;;;;;4966067;28;20157;-73
2021/08/23 12:32:11;;;;;;;13.35;9.23;;;20.00;99.90;;;;;;4981285;28;20054;-73
2021/08/23 12:34:40;;;;;;;10.23;8.48;;;20.30;99.90;;;;;;4981638;28;20043;-74